sensor_id;sensor_type;location;lat;lon;timestamp;P1;durP1;ratioP1;P2;durP2;ratioP2
6937;SDS011;40040;42.706;23.372;2024-02-04T00:02:14;23.43;;;11.40;;
6937;SDS011;40040;42.706;23.372;2024-02-04T00:04:40;28.70;;;13.03;;
6937;SDS011;40040;42.706;23.372;2024-02-04T00:07:07;25.50;;;11.80;;
6937;SDS011;40040;42.706;23.372;2024-02-04T00:09:34;26.77;;;12.63;;
6937;SDS011;40040;42.706;23.372;2024-02-04T00:12:01;28.83;;;13.40;;
6937;SDS011;40040;42.706;23.372;2024-02-04T00:14:29;27.63;;;13.13;;
6937;SDS011;40040;42.706;23.372;2024-02-04T00:16:57;21.60;;;11.03;;
6937;SDS011;40040;42.706;23.372;2024-02-04T00:19:24;20.13;;;10.73;;
6937;SDS011;40040;42.706;23.372;2024-02-04T00:21:52;22.60;;;10.50;;
6937;SDS011;40040;42.706;23.372;2024-02-04T00:24:19;23.87;;;10.40;;
6937;SDS011;40040;42.706;23.372;2024-02-04T00:26:45;20.00;;;10.87;;
6937;SDS011;40040;42.706;23.372;2024-02-04T00:29:12;25.30;;;12.43;;
6937;SDS011;40040;42.706;23.372;2024-02-04T00:31:39;27.53;;;14.23;;
6937;SDS011;40040;42.706;23.372;2024-02-04T00:34:07;28.00;;;13.50;;
6937;SDS011;40040;42.706;23.372;2024-02-04T00:36:34;20.40;;;10.73;;
6937;SDS011;40040;42.706;23.372;2024-02-04T00:39:01;16.67;;;9.50;;
6937;SDS011;40040;42.706;23.372;2024-02-04T00:41:28;19.33;;;10.07;;
6937;SDS011;40040;42.706;23.372;2024-02-04T00:43:55;17.43;;;9.40;;
6937;SDS011;40040;42.706;23.372;2024-02-04T00:46:22;19.33;;;9.07;;
6937;SDS011;40040;42.706;23.372;2024-02-04T00:48:48;14.37;;;7.30;;
6937;SDS011;40040;42.706;23.372;2024-02-04T00:51:17;12.87;;;6.57;;
6937;SDS011;40040;42.706;23.372;2024-02-04T00:53:44;11.33;;;6.27;;
6937;SDS011;40040;42.706;23.372;2024-02-04T00:56:11;12.07;;;6.27;;
6937;SDS011;40040;42.706;23.372;2024-02-04T00:58:38;10.70;;;5.40;;
6937;SDS011;40040;42.706;23.372;2024-02-04T01:01:05;9.07;;;4.97;;
6937;SDS011;40040;42.706;23.372;2024-02-04T01:03:32;9.40;;;5.23;;
6937;SDS011;40040;42.706;23.372;2024-02-04T01:05:59;8.70;;;5.37;;
6937;SDS011;40040;42.706;23.372;2024-02-04T01:08:28;11.70;;;5.27;;
6937;SDS011;40040;42.706;23.372;2024-02-04T01:10:55;7.97;;;5.33;;
6937;SDS011;40040;42.706;23.372;2024-02-04T01:13:22;8.33;;;5.33;;
6937;SDS011;40040;42.706;23.372;2024-02-04T01:15:49;8.73;;;5.40;;
6937;SDS011;40040;42.706;23.372;2024-02-04T01:18:16;10.70;;;5.97;;
6937;SDS011;40040;42.706;23.372;2024-02-04T01:20:43;9.93;;;5.30;;
6937;SDS011;40040;42.706;23.372;2024-02-04T01:23:10;9.57;;;5.60;;
6937;SDS011;40040;42.706;23.372;2024-02-04T01:25:39;7.30;;;5.13;;
6937;SDS011;40040;42.706;23.372;2024-02-04T01:28:06;9.37;;;5.93;;
6937;SDS011;40040;42.706;23.372;2024-02-04T01:30:33;10.60;;;6.07;;
6937;SDS011;40040;42.706;23.372;2024-02-04T01:33:00;9.17;;;6.17;;
6937;SDS011;40040;42.706;23.372;2024-02-04T01:35:26;11.97;;;5.60;;
6937;SDS011;40040;42.706;23.372;2024-02-04T01:37:53;7.87;;;5.00;;
6937;SDS011;40040;42.706;23.372;2024-02-04T01:40:20;8.00;;;4.87;;
6937;SDS011;40040;42.706;23.372;2024-02-04T01:42:48;7.83;;;4.90;;
6937;SDS011;40040;42.706;23.372;2024-02-04T01:45:15;5.97;;;4.60;;
6937;SDS011;40040;42.706;23.372;2024-02-04T01:47:42;6.07;;;4.10;;
6937;SDS011;40040;42.706;23.372;2024-02-04T01:50:10;4.73;;;3.77;;
6937;SDS011;40040;42.706;23.372;2024-02-04T01:52:37;4.93;;;4.07;;
6937;SDS011;40040;42.706;23.372;2024-02-04T01:55:06;4.67;;;3.87;;
6937;SDS011;40040;42.706;23.372;2024-02-04T01:57:34;5.77;;;4.30;;
6937;SDS011;40040;42.706;23.372;2024-02-04T02:00:03;4.33;;;3.80;;
6937;SDS011;40040;42.706;23.372;2024-02-04T02:02:32;5.53;;;3.50;;
6937;SDS011;40040;42.706;23.372;2024-02-04T02:05:05;5.57;;;4.20;;
6937;SDS011;40040;42.706;23.372;2024-02-04T02:07:32;7.87;;;3.97;;
6937;SDS011;40040;42.706;23.372;2024-02-04T02:09:59;5.40;;;3.40;;
6937;SDS011;40040;42.706;23.372;2024-02-04T02:12:27;4.30;;;3.40;;
6937;SDS011;40040;42.706;23.372;2024-02-04T02:15:01;3.53;;;2.90;;
6937;SDS011;40040;42.706;23.372;2024-02-04T02:17:44;3.40;;;3.10;;
6937;SDS011;40040;42.706;23.372;2024-02-04T02:20:19;3.27;;;2.97;;
6937;SDS011;40040;42.706;23.372;2024-02-04T02:22:50;3.60;;;3.30;;
6937;SDS011;40040;42.706;23.372;2024-02-04T02:25:27;4.37;;;3.10;;
6937;SDS011;40040;42.706;23.372;2024-02-04T02:27:54;3.83;;;3.10;;
6937;SDS011;40040;42.706;23.372;2024-02-04T02:30:21;6.20;;;3.40;;
6937;SDS011;40040;42.706;23.372;2024-02-04T02:32:48;4.60;;;3.20;;
6937;SDS011;40040;42.706;23.372;2024-02-04T02:35:15;3.67;;;3.37;;
6937;SDS011;40040;42.706;23.372;2024-02-04T02:37:43;3.13;;;2.83;;
6937;SDS011;40040;42.706;23.372;2024-02-04T02:40:16;4.23;;;3.53;;
6937;SDS011;40040;42.706;23.372;2024-02-04T02:42:49;3.77;;;3.23;;
6937;SDS011;40040;42.706;23.372;2024-02-04T02:45:19;3.93;;;3.47;;
6937;SDS011;40040;42.706;23.372;2024-02-04T02:47:50;6.70;;;3.97;;
6937;SDS011;40040;42.706;23.372;2024-02-04T02:50:19;3.77;;;3.40;;
6937;SDS011;40040;42.706;23.372;2024-02-04T02:52:47;4.00;;;3.60;;
6937;SDS011;40040;42.706;23.372;2024-02-04T02:55:13;4.50;;;3.43;;
6937;SDS011;40040;42.706;23.372;2024-02-04T02:57:40;4.10;;;3.70;;
6937;SDS011;40040;42.706;23.372;2024-02-04T03:00:09;4.70;;;2.90;;
6937;SDS011;40040;42.706;23.372;2024-02-04T03:02:37;5.40;;;3.20;;
6937;SDS011;40040;42.706;23.372;2024-02-04T03:05:04;4.10;;;3.25;;
6937;SDS011;40040;42.706;23.372;2024-02-04T03:07:31;3.60;;;3.30;;
6937;SDS011;40040;42.706;23.372;2024-02-04T03:09:58;4.67;;;3.60;;
6937;SDS011;40040;42.706;23.372;2024-02-04T03:12:25;4.10;;;3.70;;
6937;SDS011;40040;42.706;23.372;2024-02-04T03:14:52;4.33;;;3.30;;
6937;SDS011;40040;42.706;23.372;2024-02-04T03:17:20;4.43;;;3.50;;
6937;SDS011;40040;42.706;23.372;2024-02-04T03:19:47;5.18;;;3.13;;
6937;SDS011;40040;42.706;23.372;2024-02-04T03:22:17;5.18;;;3.28;;
6937;SDS011;40040;42.706;23.372;2024-02-04T03:24:44;3.58;;;3.33;;
6937;SDS011;40040;42.706;23.372;2024-02-04T03:27:11;3.75;;;3.45;;
6937;SDS011;40040;42.706;23.372;2024-02-04T03:29:38;3.70;;;3.30;;
6937;SDS011;40040;42.706;23.372;2024-02-04T03:32:05;3.85;;;3.60;;
6937;SDS011;40040;42.706;23.372;2024-02-04T03:34:33;4.78;;;3.47;;
6937;SDS011;40040;42.706;23.372;2024-02-04T03:37:01;4.32;;;3.70;;
6937;SDS011;40040;42.706;23.372;2024-02-04T03:39:28;5.88;;;3.63;;
6937;SDS011;40040;42.706;23.372;2024-02-04T03:41:55;4.35;;;3.90;;
6937;SDS011;40040;42.706;23.372;2024-02-04T03:44:21;6.15;;;4.20;;
6937;SDS011;40040;42.706;23.372;2024-02-04T03:46:48;5.68;;;4.40;;
6937;SDS011;40040;42.706;23.372;2024-02-04T03:49:15;5.65;;;3.97;;
6937;SDS011;40040;42.706;23.372;2024-02-04T03:51:44;3.90;;;3.60;;
6937;SDS011;40040;42.706;23.372;2024-02-04T03:54:11;4.72;;;4.22;;
6937;SDS011;40040;42.706;23.372;2024-02-04T03:56:38;4.50;;;4.10;;
6937;SDS011;40040;42.706;23.372;2024-02-04T03:59:04;4.45;;;3.50;;
6937;SDS011;40040;42.706;23.372;2024-02-04T04:01:31;3.75;;;3.33;;
6937;SDS011;40040;42.706;23.372;2024-02-04T04:03:58;3.33;;;3.00;;
6937;SDS011;40040;42.706;23.372;2024-02-04T04:06:25;3.60;;;3.30;;
6937;SDS011;40040;42.706;23.372;2024-02-04T04:08:53;3.53;;;3.22;;
6937;SDS011;40040;42.706;23.372;2024-02-04T04:11:20;3.47;;;3.00;;
6937;SDS011;40040;42.706;23.372;2024-02-04T04:13:48;4.00;;;3.42;;
6937;SDS011;40040;42.706;23.372;2024-02-04T04:16:14;3.30;;;3.00;;
6937;SDS011;40040;42.706;23.372;2024-02-04T04:18:41;3.42;;;3.13;;
6937;SDS011;40040;42.706;23.372;2024-02-04T04:21:08;3.33;;;3.05;;
6937;SDS011;40040;42.706;23.372;2024-02-04T04:23:35;3.47;;;3.17;;
6937;SDS011;40040;42.706;23.372;2024-02-04T04:26:03;3.42;;;3.13;;
6937;SDS011;40040;42.706;23.372;2024-02-04T04:28:30;3.45;;;3.15;;
6937;SDS011;40040;42.706;23.372;2024-02-04T04:30:57;3.67;;;3.38;;
6937;SDS011;40040;42.706;23.372;2024-02-04T04:33:24;9.82;;;5.47;;
6937;SDS011;40040;42.706;23.372;2024-02-04T04:35:51;14.00;;;7.45;;
6937;SDS011;40040;42.706;23.372;2024-02-04T04:38:18;11.47;;;6.03;;
6937;SDS011;40040;42.706;23.372;2024-02-04T04:40:45;6.97;;;4.57;;
6937;SDS011;40040;42.706;23.372;2024-02-04T04:43:13;4.67;;;4.27;;
6937;SDS011;40040;42.706;23.372;2024-02-04T04:45:40;5.60;;;4.23;;
6937;SDS011;40040;42.706;23.372;2024-02-04T04:48:07;5.60;;;4.07;;
6937;SDS011;40040;42.706;23.372;2024-02-04T04:50:34;6.07;;;4.33;;
6937;SDS011;40040;42.706;23.372;2024-02-04T04:53:01;5.90;;;4.70;;
6937;SDS011;40040;42.706;23.372;2024-02-04T04:55:27;7.57;;;5.03;;
6937;SDS011;40040;42.706;23.372;2024-02-04T04:57:54;3.87;;;3.27;;
6937;SDS011;40040;42.706;23.372;2024-02-04T05:00:23;3.67;;;3.37;;
6937;SDS011;40040;42.706;23.372;2024-02-04T05:02:50;3.70;;;3.40;;
6937;SDS011;40040;42.706;23.372;2024-02-04T05:05:17;4.40;;;3.57;;
6937;SDS011;40040;42.706;23.372;2024-02-04T05:07:44;3.70;;;3.30;;
6937;SDS011;40040;42.706;23.372;2024-02-04T05:10:12;3.73;;;3.37;;
6937;SDS011;40040;42.706;23.372;2024-02-04T05:12:38;6.80;;;3.73;;
6937;SDS011;40040;42.706;23.372;2024-02-04T05:15:06;7.10;;;4.65;;
6937;SDS011;40040;42.706;23.372;2024-02-04T05:17:35;7.70;;;4.63;;
6937;SDS011;40040;42.706;23.372;2024-02-04T05:20:01;5.93;;;4.00;;
6937;SDS011;40040;42.706;23.372;2024-02-04T05:22:29;5.07;;;3.90;;
6937;SDS011;40040;42.706;23.372;2024-02-04T05:24:56;4.90;;;3.65;;
6937;SDS011;40040;42.706;23.372;2024-02-04T05:27:23;8.55;;;3.92;;
6937;SDS011;40040;42.706;23.372;2024-02-04T05:29:50;6.28;;;4.18;;
6937;SDS011;40040;42.706;23.372;2024-02-04T05:32:17;6.85;;;4.15;;
6937;SDS011;40040;42.706;23.372;2024-02-04T05:34:45;4.35;;;3.95;;
6937;SDS011;40040;42.706;23.372;2024-02-04T05:37:12;6.17;;;4.00;;
6937;SDS011;40040;42.706;23.372;2024-02-04T05:39:39;8.38;;;4.40;;
6937;SDS011;40040;42.706;23.372;2024-02-04T05:42:05;8.48;;;4.65;;
6937;SDS011;40040;42.706;23.372;2024-02-04T05:44:32;6.88;;;4.20;;
6937;SDS011;40040;42.706;23.372;2024-02-04T05:46:59;4.70;;;4.10;;
6937;SDS011;40040;42.706;23.372;2024-02-04T05:49:26;8.90;;;5.10;;
6937;SDS011;40040;42.706;23.372;2024-02-04T05:51:54;4.45;;;3.78;;
6937;SDS011;40040;42.706;23.372;2024-02-04T05:54:21;5.15;;;4.18;;
6937;SDS011;40040;42.706;23.372;2024-02-04T05:56:48;8.25;;;4.90;;
6937;SDS011;40040;42.706;23.372;2024-02-04T05:59:14;16.37;;;6.40;;
6937;SDS011;40040;42.706;23.372;2024-02-04T06:01:42;7.83;;;5.37;;
6937;SDS011;40040;42.706;23.372;2024-02-04T06:04:10;5.30;;;4.63;;
6937;SDS011;40040;42.706;23.372;2024-02-04T06:06:37;6.10;;;5.27;;
6937;SDS011;40040;42.706;23.372;2024-02-04T06:09:05;8.70;;;5.00;;
6937;SDS011;40040;42.706;23.372;2024-02-04T06:11:33;5.90;;;4.97;;
6937;SDS011;40040;42.706;23.372;2024-02-04T06:14:01;7.60;;;5.57;;
6937;SDS011;40040;42.706;23.372;2024-02-04T06:16:27;7.23;;;5.03;;
6937;SDS011;40040;42.706;23.372;2024-02-04T06:18:54;6.00;;;4.47;;
6937;SDS011;40040;42.706;23.372;2024-02-04T06:21:23;7.20;;;4.60;;
6937;SDS011;40040;42.706;23.372;2024-02-04T06:23:50;6.05;;;5.25;;
6937;SDS011;40040;42.706;23.372;2024-02-04T06:26:18;10.43;;;5.60;;
6937;SDS011;40040;42.706;23.372;2024-02-04T06:28:44;7.15;;;5.82;;
6937;SDS011;40040;42.706;23.372;2024-02-04T06:31:14;6.32;;;5.70;;
6937;SDS011;40040;42.706;23.372;2024-02-04T06:33:40;10.40;;;6.30;;
6937;SDS011;40040;42.706;23.372;2024-02-04T06:36:08;9.15;;;6.07;;
6937;SDS011;40040;42.706;23.372;2024-02-04T06:38:36;9.82;;;6.15;;
6937;SDS011;40040;42.706;23.372;2024-02-04T06:41:03;9.43;;;6.00;;
6937;SDS011;40040;42.706;23.372;2024-02-04T06:43:31;8.18;;;5.70;;
6937;SDS011;40040;42.706;23.372;2024-02-04T06:45:58;7.93;;;4.93;;
6937;SDS011;40040;42.706;23.372;2024-02-04T06:48:25;8.10;;;5.30;;
6937;SDS011;40040;42.706;23.372;2024-02-04T06:50:52;7.70;;;5.00;;
6937;SDS011;40040;42.706;23.372;2024-02-04T06:53:19;8.13;;;5.68;;
6937;SDS011;40040;42.706;23.372;2024-02-04T06:55:45;6.18;;;5.57;;
6937;SDS011;40040;42.706;23.372;2024-02-04T06:58:12;6.87;;;5.20;;
6937;SDS011;40040;42.706;23.372;2024-02-04T07:00:41;7.13;;;5.47;;
6937;SDS011;40040;42.706;23.372;2024-02-04T07:03:07;8.77;;;5.20;;
6937;SDS011;40040;42.706;23.372;2024-02-04T07:05:35;5.28;;;4.43;;
6937;SDS011;40040;42.706;23.372;2024-02-04T07:08:03;7.85;;;4.55;;
6937;SDS011;40040;42.706;23.372;2024-02-04T07:10:30;4.55;;;4.05;;
6937;SDS011;40040;42.706;23.372;2024-02-04T07:12:57;7.68;;;5.13;;
6937;SDS011;40040;42.706;23.372;2024-02-04T07:15:24;4.68;;;4.18;;
6937;SDS011;40040;42.706;23.372;2024-02-04T07:17:52;7.93;;;3.92;;
6937;SDS011;40040;42.706;23.372;2024-02-04T07:20:19;6.50;;;5.40;;
6937;SDS011;40040;42.706;23.372;2024-02-04T07:22:46;5.10;;;4.50;;
6937;SDS011;40040;42.706;23.372;2024-02-04T07:25:13;4.30;;;3.90;;
6937;SDS011;40040;42.706;23.372;2024-02-04T07:27:40;6.55;;;5.22;;
6937;SDS011;40040;42.706;23.372;2024-02-04T07:30:07;6.22;;;5.20;;
6937;SDS011;40040;42.706;23.372;2024-02-04T07:32:34;7.97;;;4.88;;
6937;SDS011;40040;42.706;23.372;2024-02-04T07:35:04;7.20;;;5.07;;
6937;SDS011;40040;42.706;23.372;2024-02-04T07:37:49;9.23;;;4.70;;
6937;SDS011;40040;42.706;23.372;2024-02-04T07:40:16;5.55;;;3.10;;
6937;SDS011;40040;42.706;23.372;2024-02-04T07:42:43;3.50;;;3.20;;
6937;SDS011;40040;42.706;23.372;2024-02-04T07:45:10;5.72;;;4.03;;
6937;SDS011;40040;42.706;23.372;2024-02-04T07:47:37;4.93;;;3.50;;
6937;SDS011;40040;42.706;23.372;2024-02-04T07:50:06;3.33;;;3.10;;
6937;SDS011;40040;42.706;23.372;2024-02-04T07:52:33;6.38;;;3.65;;
6937;SDS011;40040;42.706;23.372;2024-02-04T07:55:00;6.28;;;3.60;;
6937;SDS011;40040;42.706;23.372;2024-02-04T07:57:27;2.88;;;2.78;;
6937;SDS011;40040;42.706;23.372;2024-02-04T07:59:55;4.82;;;2.92;;
6937;SDS011;40040;42.706;23.372;2024-02-04T08:02:22;5.80;;;3.80;;
6937;SDS011;40040;42.706;23.372;2024-02-04T08:04:49;3.35;;;3.15;;
6937;SDS011;40040;42.706;23.372;2024-02-04T08:07:17;10.30;;;5.57;;
6937;SDS011;40040;42.706;23.372;2024-02-04T08:09:45;4.50;;;4.07;;
6937;SDS011;40040;42.706;23.372;2024-02-04T08:12:12;4.15;;;3.75;;
6937;SDS011;40040;42.706;23.372;2024-02-04T08:14:40;6.97;;;4.32;;
6937;SDS011;40040;42.706;23.372;2024-02-04T08:17:06;3.95;;;3.40;;
6937;SDS011;40040;42.706;23.372;2024-02-04T08:19:34;3.90;;;3.38;;
6937;SDS011;40040;42.706;23.372;2024-02-04T08:22:01;3.50;;;3.20;;
6937;SDS011;40040;42.706;23.372;2024-02-04T08:24:30;3.90;;;3.40;;
6937;SDS011;40040;42.706;23.372;2024-02-04T08:26:58;4.20;;;3.45;;
6937;SDS011;40040;42.706;23.372;2024-02-04T08:29:25;5.90;;;3.75;;
6937;SDS011;40040;42.706;23.372;2024-02-04T08:31:52;6.40;;;4.80;;
6937;SDS011;40040;42.706;23.372;2024-02-04T08:34:19;6.05;;;3.58;;
6937;SDS011;40040;42.706;23.372;2024-02-04T08:36:49;5.07;;;4.47;;
6937;SDS011;40040;42.706;23.372;2024-02-04T08:39:16;2.97;;;2.70;;
6937;SDS011;40040;42.706;23.372;2024-02-04T08:41:44;3.55;;;2.88;;
6937;SDS011;40040;42.706;23.372;2024-02-04T08:44:11;2.85;;;2.65;;
6937;SDS011;40040;42.706;23.372;2024-02-04T08:46:38;2.97;;;2.78;;
6937;SDS011;40040;42.706;23.372;2024-02-04T08:49:05;2.13;;;2.03;;
6937;SDS011;40040;42.706;23.372;2024-02-04T08:51:32;2.63;;;2.42;;
6937;SDS011;40040;42.706;23.372;2024-02-04T08:53:59;2.88;;;2.60;;
6937;SDS011;40040;42.706;23.372;2024-02-04T08:56:26;2.13;;;2.03;;
6937;SDS011;40040;42.706;23.372;2024-02-04T08:58:54;1.90;;;1.80;;
6937;SDS011;40040;42.706;23.372;2024-02-04T09:01:21;2.45;;;1.70;;
6937;SDS011;40040;42.706;23.372;2024-02-04T09:03:48;1.65;;;1.40;;
6937;SDS011;40040;42.706;23.372;2024-02-04T09:06:15;3.40;;;2.58;;
6937;SDS011;40040;42.706;23.372;2024-02-04T09:08:42;5.03;;;2.00;;
6937;SDS011;40040;42.706;23.372;2024-02-04T09:11:09;3.38;;;1.95;;
6937;SDS011;40040;42.706;23.372;2024-02-04T09:13:37;2.13;;;2.03;;
6937;SDS011;40040;42.706;23.372;2024-02-04T09:16:06;4.07;;;2.25;;
6937;SDS011;40040;42.706;23.372;2024-02-04T09:18:33;2.25;;;2.05;;
6937;SDS011;40040;42.706;23.372;2024-02-04T09:21:00;2.00;;;1.80;;
6937;SDS011;40040;42.706;23.372;2024-02-04T09:23:27;3.63;;;2.20;;
6937;SDS011;40040;42.706;23.372;2024-02-04T09:25:54;4.18;;;1.30;;
6937;SDS011;40040;42.706;23.372;2024-02-04T09:28:21;2.53;;;2.13;;
6937;SDS011;40040;42.706;23.372;2024-02-04T09:30:48;2.03;;;1.92;;
6937;SDS011;40040;42.706;23.372;2024-02-04T09:33:16;2.67;;;2.40;;
6937;SDS011;40040;42.706;23.372;2024-02-04T09:35:43;1.88;;;1.77;;
6937;SDS011;40040;42.706;23.372;2024-02-04T09:38:11;3.58;;;2.25;;
6937;SDS011;40040;42.706;23.372;2024-02-04T09:40:38;2.50;;;2.40;;
6937;SDS011;40040;42.706;23.372;2024-02-04T09:43:05;2.35;;;2.03;;
6937;SDS011;40040;42.706;23.372;2024-02-04T09:45:33;3.33;;;3.05;;
6937;SDS011;40040;42.706;23.372;2024-02-04T09:48:02;2.40;;;2.25;;
6937;SDS011;40040;42.706;23.372;2024-02-04T09:50:31;2.80;;;2.05;;
6937;SDS011;40040;42.706;23.372;2024-02-04T09:52:59;2.80;;;2.47;;
6937;SDS011;40040;42.706;23.372;2024-02-04T09:55:26;2.88;;;2.67;;
6937;SDS011;40040;42.706;23.372;2024-02-04T09:57:55;2.50;;;2.30;;
6937;SDS011;40040;42.706;23.372;2024-02-04T10:00:22;5.28;;;2.60;;
6937;SDS011;40040;42.706;23.372;2024-02-04T10:02:52;2.38;;;2.20;;
6937;SDS011;40040;42.706;23.372;2024-02-04T10:05:22;4.40;;;2.95;;
6937;SDS011;40040;42.706;23.372;2024-02-04T10:07:50;2.10;;;2.00;;
6937;SDS011;40040;42.706;23.372;2024-02-04T10:10:17;4.03;;;1.83;;
6937;SDS011;40040;42.706;23.372;2024-02-04T10:12:44;2.47;;;2.10;;
6937;SDS011;40040;42.706;23.372;2024-02-04T10:15:11;2.40;;;2.20;;
6937;SDS011;40040;42.706;23.372;2024-02-04T10:17:41;2.80;;;2.50;;
6937;SDS011;40040;42.706;23.372;2024-02-04T10:20:09;1.52;;;1.42;;
6937;SDS011;40040;42.706;23.372;2024-02-04T10:22:36;9.10;;;5.70;;
6937;SDS011;40040;42.706;23.372;2024-02-04T10:25:08;2.00;;;1.90;;
6937;SDS011;40040;42.706;23.372;2024-02-04T10:27:37;3.05;;;2.10;;
6937;SDS011;40040;42.706;23.372;2024-02-04T10:30:04;4.82;;;2.60;;
6937;SDS011;40040;42.706;23.372;2024-02-04T10:32:32;2.15;;;2.03;;
6937;SDS011;40040;42.706;23.372;2024-02-04T10:35:00;2.40;;;2.20;;
6937;SDS011;40040;42.706;23.372;2024-02-04T10:37:27;3.95;;;2.25;;
6937;SDS011;40040;42.706;23.372;2024-02-04T10:39:54;2.78;;;2.25;;
6937;SDS011;40040;42.706;23.372;2024-02-04T10:42:23;2.00;;;1.90;;
6937;SDS011;40040;42.706;23.372;2024-02-04T10:44:51;1.83;;;1.80;;
6937;SDS011;40040;42.706;23.372;2024-02-04T10:47:21;2.10;;;2.00;;
6937;SDS011;40040;42.706;23.372;2024-02-04T10:49:50;3.10;;;2.80;;
6937;SDS011;40040;42.706;23.372;2024-02-04T10:52:19;1.77;;;1.67;;
6937;SDS011;40040;42.706;23.372;2024-02-04T10:54:47;5.60;;;1.80;;
6937;SDS011;40040;42.706;23.372;2024-02-04T10:57:17;1.83;;;1.75;;
6937;SDS011;40040;42.706;23.372;2024-02-04T10:59:50;2.08;;;1.85;;
6937;SDS011;40040;42.706;23.372;2024-02-04T11:02:18;2.97;;;2.08;;
6937;SDS011;40040;42.706;23.372;2024-02-04T11:04:45;1.75;;;1.75;;
6937;SDS011;40040;42.706;23.372;2024-02-04T11:07:15;3.80;;;1.95;;
6937;SDS011;40040;42.706;23.372;2024-02-04T11:09:44;2.40;;;2.25;;
6937;SDS011;40040;42.706;23.372;2024-02-04T11:12:14;2.88;;;2.20;;
6937;SDS011;40040;42.706;23.372;2024-02-04T11:14:42;4.55;;;2.65;;
6937;SDS011;40040;42.706;23.372;2024-02-04T11:17:20;5.10;;;2.70;;
6937;SDS011;40040;42.706;23.372;2024-02-04T11:20:07;1.92;;;1.83;;
6937;SDS011;40040;42.706;23.372;2024-02-04T11:22:50;3.05;;;2.65;;
6937;SDS011;40040;42.706;23.372;2024-02-04T11:25:33;2.03;;;1.92;;
6937;SDS011;40040;42.706;23.372;2024-02-04T11:28:10;6.53;;;3.00;;
6937;SDS011;40040;42.706;23.372;2024-02-04T11:30:37;2.92;;;2.42;;
6937;SDS011;40040;42.706;23.372;2024-02-04T11:33:06;3.03;;;2.30;;
6937;SDS011;40040;42.706;23.372;2024-02-04T11:35:33;2.20;;;2.08;;
6937;SDS011;40040;42.706;23.372;2024-02-04T11:38:00;3.28;;;3.00;;
6937;SDS011;40040;42.706;23.372;2024-02-04T11:40:30;3.03;;;2.90;;
6937;SDS011;40040;42.706;23.372;2024-02-04T11:43:05;2.53;;;2.10;;
6937;SDS011;40040;42.706;23.372;2024-02-04T11:45:32;2.38;;;2.28;;
6937;SDS011;40040;42.706;23.372;2024-02-04T11:48:02;2.00;;;1.90;;
6937;SDS011;40040;42.706;23.372;2024-02-04T11:50:30;2.20;;;2.08;;
6937;SDS011;40040;42.706;23.372;2024-02-04T11:53:07;4.07;;;2.30;;
6937;SDS011;40040;42.706;23.372;2024-02-04T11:55:35;3.45;;;2.10;;
6937;SDS011;40040;42.706;23.372;2024-02-04T11:58:03;3.47;;;2.40;;
6937;SDS011;40040;42.706;23.372;2024-02-04T12:00:32;2.60;;;1.90;;
6937;SDS011;40040;42.706;23.372;2024-02-04T12:02:59;2.83;;;2.28;;
6937;SDS011;40040;42.706;23.372;2024-02-04T12:05:27;2.10;;;2.00;;
6937;SDS011;40040;42.706;23.372;2024-02-04T12:07:56;6.07;;;2.78;;
6937;SDS011;40040;42.706;23.372;2024-02-04T12:10:23;2.42;;;2.22;;
6937;SDS011;40040;42.706;23.372;2024-02-04T12:12:52;2.30;;;1.98;;
6937;SDS011;40040;42.706;23.372;2024-02-04T12:15:20;2.22;;;2.13;;
6937;SDS011;40040;42.706;23.372;2024-02-04T12:17:47;2.30;;;2.20;;
6937;SDS011;40040;42.706;23.372;2024-02-04T12:20:15;2.40;;;2.30;;
6937;SDS011;40040;42.706;23.372;2024-02-04T12:22:42;2.55;;;2.40;;
6937;SDS011;40040;42.706;23.372;2024-02-04T12:25:11;2.80;;;2.60;;
6937;SDS011;40040;42.706;23.372;2024-02-04T12:27:38;6.57;;;3.10;;
6937;SDS011;40040;42.706;23.372;2024-02-04T12:30:05;2.40;;;2.20;;
6937;SDS011;40040;42.706;23.372;2024-02-04T12:32:34;2.70;;;2.50;;
6937;SDS011;40040;42.706;23.372;2024-02-04T12:35:02;2.33;;;2.20;;
6937;SDS011;40040;42.706;23.372;2024-02-04T12:37:29;3.00;;;2.80;;
6937;SDS011;40040;42.706;23.372;2024-02-04T12:39:57;2.30;;;2.20;;
6937;SDS011;40040;42.706;23.372;2024-02-04T12:42:26;2.47;;;2.28;;
6937;SDS011;40040;42.706;23.372;2024-02-04T12:44:56;3.00;;;2.78;;
6937;SDS011;40040;42.706;23.372;2024-02-04T12:47:22;2.00;;;2.00;;
6937;SDS011;40040;42.706;23.372;2024-02-04T12:49:57;2.53;;;2.42;;
6937;SDS011;40040;42.706;23.372;2024-02-04T12:52:27;2.90;;;2.55;;
6937;SDS011;40040;42.706;23.372;2024-02-04T12:54:56;2.03;;;1.85;;
6937;SDS011;40040;42.706;23.372;2024-02-04T12:57:23;2.75;;;2.65;;
6937;SDS011;40040;42.706;23.372;2024-02-04T12:59:51;3.45;;;3.05;;
6937;SDS011;40040;42.706;23.372;2024-02-04T13:02:18;2.88;;;2.67;;
6937;SDS011;40040;42.706;23.372;2024-02-04T13:04:47;2.33;;;2.22;;
6937;SDS011;40040;42.706;23.372;2024-02-04T13:07:14;2.90;;;2.70;;
6937;SDS011;40040;42.706;23.372;2024-02-04T13:09:42;3.42;;;2.38;;
6937;SDS011;40040;42.706;23.372;2024-02-04T13:12:09;3.33;;;2.50;;
6937;SDS011;40040;42.706;23.372;2024-02-04T13:14:36;3.05;;;2.40;;
6937;SDS011;40040;42.706;23.372;2024-02-04T13:17:05;2.03;;;2.03;;
6937;SDS011;40040;42.706;23.372;2024-02-04T13:19:32;2.95;;;2.60;;
6937;SDS011;40040;42.706;23.372;2024-02-04T13:22:01;2.97;;;2.40;;
6937;SDS011;40040;42.706;23.372;2024-02-04T13:24:29;2.95;;;2.33;;
6937;SDS011;40040;42.706;23.372;2024-02-04T13:26:57;2.20;;;2.10;;
6937;SDS011;40040;42.706;23.372;2024-02-04T13:29:25;2.72;;;2.53;;
6937;SDS011;40040;42.706;23.372;2024-02-04T13:31:52;2.58;;;2.33;;
6937;SDS011;40040;42.706;23.372;2024-02-04T13:34:20;2.50;;;2.20;;
6937;SDS011;40040;42.706;23.372;2024-02-04T13:36:48;3.17;;;2.97;;
6937;SDS011;40040;42.706;23.372;2024-02-04T13:39:15;2.67;;;2.58;;
6937;SDS011;40040;42.706;23.372;2024-02-04T13:41:43;2.70;;;2.60;;
6937;SDS011;40040;42.706;23.372;2024-02-04T13:44:10;3.03;;;2.88;;
6937;SDS011;40040;42.706;23.372;2024-02-04T13:46:37;2.67;;;2.58;;
6937;SDS011;40040;42.706;23.372;2024-02-04T13:49:07;3.08;;;2.70;;
6937;SDS011;40040;42.706;23.372;2024-02-04T13:51:35;2.50;;;2.40;;
6937;SDS011;40040;42.706;23.372;2024-02-04T13:54:02;3.13;;;2.70;;
6937;SDS011;40040;42.706;23.372;2024-02-04T13:56:29;2.40;;;2.30;;
6937;SDS011;40040;42.706;23.372;2024-02-04T13:58:58;1.98;;;1.98;;
6937;SDS011;40040;42.706;23.372;2024-02-04T14:01:25;2.38;;;2.28;;
6937;SDS011;40040;42.706;23.372;2024-02-04T14:03:51;1.92;;;1.83;;
6937;SDS011;40040;42.706;23.372;2024-02-04T14:06:18;2.78;;;2.50;;
6937;SDS011;40040;42.706;23.372;2024-02-04T14:08:46;2.92;;;2.67;;
6937;SDS011;40040;42.706;23.372;2024-02-04T14:11:13;1.75;;;1.75;;
6937;SDS011;40040;42.706;23.372;2024-02-04T14:13:40;2.28;;;2.10;;
6937;SDS011;40040;42.706;23.372;2024-02-04T14:16:07;2.50;;;2.30;;
6937;SDS011;40040;42.706;23.372;2024-02-04T14:18:34;2.50;;;2.40;;
6937;SDS011;40040;42.706;23.372;2024-02-04T14:21:02;2.65;;;2.45;;
6937;SDS011;40040;42.706;23.372;2024-02-04T14:23:30;2.25;;;2.15;;
6937;SDS011;40040;42.706;23.372;2024-02-04T14:25:58;2.90;;;2.70;;
6937;SDS011;40040;42.706;23.372;2024-02-04T14:28:25;1.95;;;1.75;;
6937;SDS011;40040;42.706;23.372;2024-02-04T14:30:52;2.70;;;2.60;;
6937;SDS011;40040;42.706;23.372;2024-02-04T14:33:19;2.38;;;2.28;;
6937;SDS011;40040;42.706;23.372;2024-02-04T14:35:46;3.47;;;2.97;;
6937;SDS011;40040;42.706;23.372;2024-02-04T14:38:13;2.88;;;2.40;;
6937;SDS011;40040;42.706;23.372;2024-02-04T14:40:40;3.45;;;2.83;;
6937;SDS011;40040;42.706;23.372;2024-02-04T14:43:08;2.53;;;2.35;;
6937;SDS011;40040;42.706;23.372;2024-02-04T14:45:37;2.50;;;2.30;;
6937;SDS011;40040;42.706;23.372;2024-02-04T14:48:04;2.65;;;2.38;;
6937;SDS011;40040;42.706;23.372;2024-02-04T14:50:32;2.58;;;2.38;;